sensor_id;sensor_type;location;lat;lon;timestamp;temperature;humidity
17956;DHT22;27666;51.498;11.966;2023-05-07T00:00:24;10.10;99.90
17956;DHT22;27666;51.498;11.966;2023-05-07T00:03:12;10.10;99.90
17956;DHT22;27666;51.498;11.966;2023-05-07T00:05:59;10.00;99.90
17956;DHT22;27666;51.498;11.966;2023-05-07T00:08:46;9.90;99.90
17956;DHT22;27666;51.498;11.966;2023-05-07T00:11:33;9.90;99.90
17956;DHT22;27666;51.498;11.966;2023-05-07T00:14:21;9.70;99.90
17956;DHT22;27666;51.498;11.966;2023-05-07T00:17:07;9.70;99.90
17956;DHT22;27666;51.498;11.966;2023-05-07T00:19:55;9.70;99.90
17956;DHT22;27666;51.498;11.966;2023-05-07T00:22:41;9.60;99.90
17956;DHT22;27666;51.498;11.966;2023-05-07T00:25:29;9.70;99.90
17956;DHT22;27666;51.498;11.966;2023-05-07T00:28:15;9.80;99.90
17956;DHT22;27666;51.498;11.966;2023-05-07T00:31:01;9.80;99.90
17956;DHT22;27666;51.498;11.966;2023-05-07T00:33:48;9.70;99.90
17956;DHT22;27666;51.498;11.966;2023-05-07T00:36:36;9.80;99.90
17956;DHT22;27666;51.498;11.966;2023-05-07T00:39:22;9.80;99.90
17956;DHT22;27666;51.498;11.966;2023-05-07T00:42:08;9.70;99.90
17956;DHT22;27666;51.498;11.966;2023-05-07T00:44:55;9.80;99.90
17956;DHT22;27666;51.498;11.966;2023-05-07T00:47:42;9.70;99.90
17956;DHT22;27666;51.498;11.966;2023-05-07T00:50:29;9.70;99.90
17956;DHT22;27666;51.498;11.966;2023-05-07T00:53:17;9.70;99.90
17956;DHT22;27666;51.498;11.966;2023-05-07T00:56:05;9.60;99.90
17956;DHT22;27666;51.498;11.966;2023-05-07T00:58:52;9.60;99.90
17956;DHT22;27666;51.498;11.966;2023-05-07T01:01:42;9.60;99.90
17956;DHT22;27666;51.498;11.966;2023-05-07T01:04:28;9.60;99.90
17956;DHT22;27666;51.498;11.966;2023-05-07T01:07:15;9.60;99.90
17956;DHT22;27666;51.498;11.966;2023-05-07T01:10:04;9.60;99.90
17956;DHT22;27666;51.498;11.966;2023-05-07T01:12:51;9.60;99.90
17956;DHT22;27666;51.498;11.966;2023-05-07T01:15:40;9.60;99.90
17956;DHT22;27666;51.498;11.966;2023-05-07T01:18:27;9.70;99.90
17956;DHT22;27666;51.498;11.966;2023-05-07T01:21:15;9.80;99.90
17956;DHT22;27666;51.498;11.966;2023-05-07T01:24:05;9.90;99.90
17956;DHT22;27666;51.498;11.966;2023-05-07T01:26:51;9.90;99.90
17956;DHT22;27666;51.498;11.966;2023-05-07T01:29:38;10.00;99.90
17956;DHT22;27666;51.498;11.966;2023-05-07T01:32:29;9.90;99.90
17956;DHT22;27666;51.498;11.966;2023-05-07T01:35:20;10.00;99.90
17956;DHT22;27666;51.498;11.966;2023-05-07T01:38:08;10.00;99.90
17956;DHT22;27666;51.498;11.966;2023-05-07T01:40:56;10.00;99.90
17956;DHT22;27666;51.498;11.966;2023-05-07T01:43:44;10.00;99.90
17956;DHT22;27666;51.498;11.966;2023-05-07T01:46:31;9.90;99.90
17956;DHT22;27666;51.498;11.966;2023-05-07T01:49:19;9.90;99.90
17956;DHT22;27666;51.498;11.966;2023-05-07T01:52:06;10.00;99.90
17956;DHT22;27666;51.498;11.966;2023-05-07T01:54:52;9.80;99.90
17956;DHT22;27666;51.498;11.966;2023-05-07T01:57:40;9.90;99.90
17956;DHT22;27666;51.498;11.966;2023-05-07T02:00:27;9.90;99.90
17956;DHT22;27666;51.498;11.966;2023-05-07T02:03:13;9.80;99.90
17956;DHT22;27666;51.498;11.966;2023-05-07T02:06:00;9.80;99.90
17956;DHT22;27666;51.498;11.966;2023-05-07T02:08:47;9.90;99.90
17956;DHT22;27666;51.498;11.966;2023-05-07T02:11:34;9.80;99.90
17956;DHT22;27666;51.498;11.966;2023-05-07T02:14:22;9.80;99.90
17956;DHT22;27666;51.498;11.966;2023-05-07T02:17:08;9.80;99.90
17956;DHT22;27666;51.498;11.966;2023-05-07T02:19:55;9.80;99.90
17956;DHT22;27666;51.498;11.966;2023-05-07T02:22:41;9.70;99.90
17956;DHT22;27666;51.498;11.966;2023-05-07T02:25:27;9.80;99.90
17956;DHT22;27666;51.498;11.966;2023-05-07T02:28:14;9.70;99.90
17956;DHT22;27666;51.498;11.966;2023-05-07T02:31:02;9.80;99.90
17956;DHT22;27666;51.498;11.966;2023-05-07T02:33:48;9.70;99.90
17956;DHT22;27666;51.498;11.966;2023-05-07T02:36:35;9.80;99.90
17956;DHT22;27666;51.498;11.966;2023-05-07T02:39:21;9.80;99.90
17956;DHT22;27666;51.498;11.966;2023-05-07T02:42:08;9.80;99.90
17956;DHT22;27666;51.498;11.966;2023-05-07T02:44:54;9.80;99.90
17956;DHT22;27666;51.498;11.966;2023-05-07T02:47:42;9.90;99.90
17956;DHT22;27666;51.498;11.966;2023-05-07T02:50:29;9.90;99.90
17956;DHT22;27666;51.498;11.966;2023-05-07T02:53:15;10.00;99.90
17956;DHT22;27666;51.498;11.966;2023-05-07T02:56:02;10.00;99.90
17956;DHT22;27666;51.498;11.966;2023-05-07T02:58:49;10.00;99.90
17956;DHT22;27666;51.498;11.966;2023-05-07T03:01:35;10.10;99.90
17956;DHT22;27666;51.498;11.966;2023-05-07T03:04:23;10.10;99.90
17956;DHT22;27666;51.498;11.966;2023-05-07T03:07:09;10.10;99.90
17956;DHT22;27666;51.498;11.966;2023-05-07T03:09:56;10.10;99.90
17956;DHT22;27666;51.498;11.966;2023-05-07T03:12:42;10.10;99.90
17956;DHT22;27666;51.498;11.966;2023-05-07T03:15:29;10.10;99.90
17956;DHT22;27666;51.498;11.966;2023-05-07T03:18:15;10.10;99.90
17956;DHT22;27666;51.498;11.966;2023-05-07T03:21:04;10.10;99.90
17956;DHT22;27666;51.498;11.966;2023-05-07T03:23:50;10.10;99.90
17956;DHT22;27666;51.498;11.966;2023-05-07T03:26:36;10.00;99.90
17956;DHT22;27666;51.498;11.966;2023-05-07T03:29:23;9.90;99.90
17956;DHT22;27666;51.498;11.966;2023-05-07T03:32:10;10.00;99.90
17956;DHT22;27666;51.498;11.966;2023-05-07T03:34:56;10.10;99.90
17956;DHT22;27666;51.498;11.966;2023-05-07T03:37:44;10.00;99.90
17956;DHT22;27666;51.498;11.966;2023-05-07T03:40:31;10.00;99.90
17956;DHT22;27666;51.498;11.966;2023-05-07T03:43:17;10.00;99.90
17956;DHT22;27666;51.498;11.966;2023-05-07T03:46:03;10.00;99.90
17956;DHT22;27666;51.498;11.966;2023-05-07T03:48:50;10.00;99.90
17956;DHT22;27666;51.498;11.966;2023-05-07T03:51:36;10.00;99.90
17956;DHT22;27666;51.498;11.966;2023-05-07T03:54:24;10.00;99.90
17956;DHT22;27666;51.498;11.966;2023-05-07T03:57:11;10.10;99.90
17956;DHT22;27666;51.498;11.966;2023-05-07T03:59:58;10.10;99.90
17956;DHT22;27666;51.498;11.966;2023-05-07T04:02:44;10.00;99.90
17956;DHT22;27666;51.498;11.966;2023-05-07T04:05:31;10.00;99.90
17956;DHT22;27666;51.498;11.966;2023-05-07T04:08:18;10.00;99.90
17956;DHT22;27666;51.498;11.966;2023-05-07T04:11:05;10.10;99.90
17956;DHT22;27666;51.498;11.966;2023-05-07T04:13:52;9.80;99.90
17956;DHT22;27666;51.498;11.966;2023-05-07T04:16:39;9.90;99.90
17956;DHT22;27666;51.498;11.966;2023-05-07T04:19:25;9.80;99.90
17956;DHT22;27666;51.498;11.966;2023-05-07T04:22:12;9.90;99.90
17956;DHT22;27666;51.498;11.966;2023-05-07T04:24:58;10.00;99.90
17956;DHT22;27666;51.498;11.966;2023-05-07T04:27:48;10.00;99.90
17956;DHT22;27666;51.498;11.966;2023-05-07T04:30:35;10.00;99.90
17956;DHT22;27666;51.498;11.966;2023-05-07T04:33:22;10.00;99.90
17956;DHT22;27666;51.498;11.966;2023-05-07T04:36:08;10.10;99.90
17956;DHT22;27666;51.498;11.966;2023-05-07T04:38:56;10.00;99.90
17956;DHT22;27666;51.498;11.966;2023-05-07T04:41:42;9.90;99.90
17956;DHT22;27666;51.498;11.966;2023-05-07T04:44:30;9.90;99.90
17956;DHT22;27666;51.498;11.966;2023-05-07T04:47:17;10.00;99.90
17956;DHT22;27666;51.498;11.966;2023-05-07T04:50:04;10.00;99.90
17956;DHT22;27666;51.498;11.966;2023-05-07T04:52:51;10.10;99.90
17956;DHT22;27666;51.498;11.966;2023-05-07T04:55:37;10.00;99.90
17956;DHT22;27666;51.498;11.966;2023-05-07T04:58:24;9.80;99.90
17956;DHT22;27666;51.498;11.966;2023-05-07T05:01:12;9.90;99.90
17956;DHT22;27666;51.498;11.966;2023-05-07T05:03:58;10.00;99.90
17956;DHT22;27666;51.498;11.966;2023-05-07T05:06:46;9.90;99.90
17956;DHT22;27666;51.498;11.966;2023-05-07T05:09:33;10.10;99.90
17956;DHT22;27666;51.498;11.966;2023-05-07T05:12:19;10.10;99.90
17956;DHT22;27666;51.498;11.966;2023-05-07T05:15:07;10.10;99.90
17956;DHT22;27666;51.498;11.966;2023-05-07T05:17:55;10.10;99.90
17956;DHT22;27666;51.498;11.966;2023-05-07T05:20:42;10.00;99.90
17956;DHT22;27666;51.498;11.966;2023-05-07T05:23:29;10.00;99.90
17956;DHT22;27666;51.498;11.966;2023-05-07T05:26:16;10.10;99.90
17956;DHT22;27666;51.498;11.966;2023-05-07T05:29:02;10.30;99.90
17956;DHT22;27666;51.498;11.966;2023-05-07T05:31:48;10.40;99.90
17956;DHT22;27666;51.498;11.966;2023-05-07T05:34:36;10.30;99.90
17956;DHT22;27666;51.498;11.966;2023-05-07T05:37:23;10.20;99.90
17956;DHT22;27666;51.498;11.966;2023-05-07T05:40:10;10.20;99.90
17956;DHT22;27666;51.498;11.966;2023-05-07T05:42:57;10.20;99.90
17956;DHT22;27666;51.498;11.966;2023-05-07T05:45:44;10.20;99.90
17956;DHT22;27666;51.498;11.966;2023-05-07T05:48:30;10.10;99.90
17956;DHT22;27666;51.498;11.966;2023-05-07T05:51:18;10.20;99.90
17956;DHT22;27666;51.498;11.966;2023-05-07T05:54:05;10.20;99.90
17956;DHT22;27666;51.498;11.966;2023-05-07T05:56:51;10.30;99.90
17956;DHT22;27666;51.498;11.966;2023-05-07T05:59:38;10.30;99.90
17956;DHT22;27666;51.498;11.966;2023-05-07T06:02:24;10.40;99.90
17956;DHT22;27666;51.498;11.966;2023-05-07T06:05:10;10.50;99.90
17956;DHT22;27666;51.498;11.966;2023-05-07T06:07:58;10.40;99.90
17956;DHT22;27666;51.498;11.966;2023-05-07T06:10:45;10.50;99.90
17956;DHT22;27666;51.498;11.966;2023-05-07T06:13:33;10.40;99.90
17956;DHT22;27666;51.498;11.966;2023-05-07T06:16:20;10.30;99.90
17956;DHT22;27666;51.498;11.966;2023-05-07T06:19:06;10.30;99.90
17956;DHT22;27666;51.498;11.966;2023-05-07T06:21:52;10.30;99.90
17956;DHT22;27666;51.498;11.966;2023-05-07T06:24:40;10.30;99.90
17956;DHT22;27666;51.498;11.966;2023-05-07T06:27:27;10.30;99.90
17956;DHT22;27666;51.498;11.966;2023-05-07T06:30:14;10.40;99.90
17956;DHT22;27666;51.498;11.966;2023-05-07T06:33:00;10.50;99.90
17956;DHT22;27666;51.498;11.966;2023-05-07T06:35:47;10.50;99.90
17956;DHT22;27666;51.498;11.966;2023-05-07T06:38:33;10.50;99.90
17956;DHT22;27666;51.498;11.966;2023-05-07T06:41:23;10.60;99.90
17956;DHT22;27666;51.498;11.966;2023-05-07T06:44:09;10.60;99.90
17956;DHT22;27666;51.498;11.966;2023-05-07T06:46:56;10.60;99.90
17956;DHT22;27666;51.498;11.966;2023-05-07T06:49:44;10.70;99.90
17956;DHT22;27666;51.498;11.966;2023-05-07T06:52:30;10.70;99.90
17956;DHT22;27666;51.498;11.966;2023-05-07T06:55:17;10.90;99.90
17956;DHT22;27666;51.498;11.966;2023-05-07T06:58:06;10.80;99.90
17956;DHT22;27666;51.498;11.966;2023-05-07T07:00:59;10.90;99.90
17956;DHT22;27666;51.498;11.966;2023-05-07T07:03:46;10.90;99.90
17956;DHT22;27666;51.498;11.966;2023-05-07T07:06:32;11.00;99.90
17956;DHT22;27666;51.498;11.966;2023-05-07T07:09:19;11.00;99.90
17956;DHT22;27666;51.498;11.966;2023-05-07T07:12:08;10.90;99.90
17956;DHT22;27666;51.498;11.966;2023-05-07T07:14:56;10.70;99.90
17956;DHT22;27666;51.498;11.966;2023-05-07T07:17:42;10.80;99.90
17956;DHT22;27666;51.498;11.966;2023-05-07T07:20:30;11.00;99.90
17956;DHT22;27666;51.498;11.966;2023-05-07T07:23:16;11.00;99.90
17956;DHT22;27666;51.498;11.966;2023-05-07T07:26:03;11.10;99.90
17956;DHT22;27666;51.498;11.966;2023-05-07T07:28:51;11.10;99.90
17956;DHT22;27666;51.498;11.966;2023-05-07T07:31:39;11.00;99.90
17956;DHT22;27666;51.498;11.966;2023-05-07T07:34:25;11.00;99.90
17956;DHT22;27666;51.498;11.966;2023-05-07T07:37:12;11.10;99.90
17956;DHT22;27666;51.498;11.966;2023-05-07T07:40:02;11.00;99.90
17956;DHT22;27666;51.498;11.966;2023-05-07T07:42:49;10.90;99.90
17956;DHT22;27666;51.498;11.966;2023-05-07T07:45:35;10.80;99.90
17956;DHT22;27666;51.498;11.966;2023-05-07T07:48:23;10.90;99.90
17956;DHT22;27666;51.498;11.966;2023-05-07T07:51:10;10.90;99.90
17956;DHT22;27666;51.498;11.966;2023-05-07T07:53:57;10.80;99.90
17956;DHT22;27666;51.498;11.966;2023-05-07T07:56:43;10.90;99.90
17956;DHT22;27666;51.498;11.966;2023-05-07T07:59:30;10.80;99.90
17956;DHT22;27666;51.498;11.966;2023-05-07T08:02:17;10.90;99.90
17956;DHT22;27666;51.498;11.966;2023-05-07T08:05:05;11.00;99.90
17956;DHT22;27666;51.498;11.966;2023-05-07T08:07:52;11.10;99.90
17956;DHT22;27666;51.498;11.966;2023-05-07T08:10:39;11.10;99.90
17956;DHT22;27666;51.498;11.966;2023-05-07T08:13:25;11.20;99.90
17956;DHT22;27666;51.498;11.966;2023-05-07T08:16:12;11.30;99.90
17956;DHT22;27666;51.498;11.966;2023-05-07T08:18:59;11.40;99.90
17956;DHT22;27666;51.498;11.966;2023-05-07T08:21:47;11.20;99.90
17956;DHT22;27666;51.498;11.966;2023-05-07T08:24:34;11.20;99.90
17956;DHT22;27666;51.498;11.966;2023-05-07T08:27:20;11.10;99.90
17956;DHT22;27666;51.498;11.966;2023-05-07T08:30:08;11.00;99.90
17956;DHT22;27666;51.498;11.966;2023-05-07T08:32:55;11.30;99.90
17956;DHT22;27666;51.498;11.966;2023-05-07T08:35:41;11.40;99.90
17956;DHT22;27666;51.498;11.966;2023-05-07T08:38:29;11.40;99.90
17956;DHT22;27666;51.498;11.966;2023-05-07T08:41:16;11.30;99.90
17956;DHT22;27666;51.498;11.966;2023-05-07T08:44:03;11.40;99.90
17956;DHT22;27666;51.498;11.966;2023-05-07T08:46:54;11.40;99.90
17956;DHT22;27666;51.498;11.966;2023-05-07T08:49:42;11.50;99.90
17956;DHT22;27666;51.498;11.966;2023-05-07T08:52:28;11.40;99.90
17956;DHT22;27666;51.498;11.966;2023-05-07T08:55:16;11.40;99.90
17956;DHT22;27666;51.498;11.966;2023-05-07T08:58:03;11.50;99.90
17956;DHT22;27666;51.498;11.966;2023-05-07T09:00:51;11.30;99.90
17956;DHT22;27666;51.498;11.966;2023-05-07T09:03:39;11.40;99.90
17956;DHT22;27666;51.498;11.966;2023-05-07T09:06:25;11.50;99.90
17956;DHT22;27666;51.498;11.966;2023-05-07T09:09:14;11.60;99.90
17956;DHT22;27666;51.498;11.966;2023-05-07T09:12:04;11.60;99.90
17956;DHT22;27666;51.498;11.966;2023-05-07T09:14:51;11.60;99.90
17956;DHT22;27666;51.498;11.966;2023-05-07T09:17:37;11.50;99.90
17956;DHT22;27666;51.498;11.966;2023-05-07T09:20:24;11.50;99.90
17956;DHT22;27666;51.498;11.966;2023-05-07T09:23:10;11.60;99.90
17956;DHT22;27666;51.498;11.966;2023-05-07T09:26:00;11.70;99.90
17956;DHT22;27666;51.498;11.966;2023-05-07T09:28:49;11.90;99.90
17956;DHT22;27666;51.498;11.966;2023-05-07T09:31:37;12.00;99.90
17956;DHT22;27666;51.498;11.966;2023-05-07T09:34:24;12.00;99.90
17956;DHT22;27666;51.498;11.966;2023-05-07T09:37:13;12.20;99.90
17956;DHT22;27666;51.498;11.966;2023-05-07T09:39:59;12.10;99.90
17956;DHT22;27666;51.498;11.966;2023-05-07T09:42:46;11.80;99.90
17956;DHT22;27666;51.498;11.966;2023-05-07T09:45:35;11.80;99.90
17956;DHT22;27666;51.498;11.966;2023-05-07T09:48:22;11.80;99.90
17956;DHT22;27666;51.498;11.966;2023-05-07T09:51:29;11.70;99.90
17956;DHT22;27666;51.498;11.966;2023-05-07T09:54:18;11.90;99.90
17956;DHT22;27666;51.498;11.966;2023-05-07T09:57:05;11.90;99.90
17956;DHT22;27666;51.498;11.966;2023-05-07T09:59:53;11.90;99.90
17956;DHT22;27666;51.498;11.966;2023-05-07T10:02:43;11.80;99.90
17956;DHT22;27666;51.498;11.966;2023-05-07T10:05:34;12.10;99.90
17956;DHT22;27666;51.498;11.966;2023-05-07T10:08:21;12.10;99.90
17956;DHT22;27666;51.498;11.966;2023-05-07T10:11:09;12.10;99.90
17956;DHT22;27666;51.498;11.966;2023-05-07T10:13:56;12.10;99.90
17956;DHT22;27666;51.498;11.966;2023-05-07T10:16:43;12.20;99.90
17956;DHT22;27666;51.498;11.966;2023-05-07T10:19:31;12.10;99.90
17956;DHT22;27666;51.498;11.966;2023-05-07T10:22:19;12.20;99.90
17956;DHT22;27666;51.498;11.966;2023-05-07T10:25:13;12.10;99.90
17956;DHT22;27666;51.498;11.966;2023-05-07T10:28:03;12.00;99.90
17956;DHT22;27666;51.498;11.966;2023-05-07T10:31:05;12.00;99.90
17956;DHT22;27666;51.498;11.966;2023-05-07T10:33:55;11.90;99.90
17956;DHT22;27666;51.498;11.966;2023-05-07T10:36:45;11.90;99.90
17956;DHT22;27666;51.498;11.966;2023-05-07T10:39:32;12.00;99.90
17956;DHT22;27666;51.498;11.966;2023-05-07T10:42:19;11.80;99.90
17956;DHT22;27666;51.498;11.966;2023-05-07T10:45:12;12.00;99.90
17956;DHT22;27666;51.498;11.966;2023-05-07T10:48:07;12.10;99.90
17956;DHT22;27666;51.498;11.966;2023-05-07T10:51:19;12.20;99.90
17956;DHT22;27666;51.498;11.966;2023-05-07T10:54:23;12.20;99.90
17956;DHT22;27666;51.498;11.966;2023-05-07T10:57:32;12.00;99.90
17956;DHT22;27666;51.498;11.966;2023-05-07T11:00:43;11.90;99.90
17956;DHT22;27666;51.498;11.966;2023-05-07T11:03:30;11.90;99.90
17956;DHT22;27666;51.498;11.966;2023-05-07T11:06:16;11.90;99.90
17956;DHT22;27666;51.498;11.966;2023-05-07T11:09:03;11.90;99.90
17956;DHT22;27666;51.498;11.966;2023-05-07T11:11:50;11.70;99.90
17956;DHT22;27666;51.498;11.966;2023-05-07T11:14:44;12.00;99.90
17956;DHT22;27666;51.498;11.966;2023-05-07T11:17:31;12.10;99.90
17956;DHT22;27666;51.498;11.966;2023-05-07T11:20:52;12.20;99.90
17956;DHT22;27666;51.498;11.966;2023-05-07T11:23:58;12.30;99.90
17956;DHT22;27666;51.498;11.966;2023-05-07T11:26:46;12.20;99.90
17956;DHT22;27666;51.498;11.966;2023-05-07T11:29:35;12.40;99.90
17956;DHT22;27666;51.498;11.966;2023-05-07T11:32:22;12.30;99.90
17956;DHT22;27666;51.498;11.966;2023-05-07T11:35:10;12.30;99.90
17956;DHT22;27666;51.498;11.966;2023-05-07T11:37:58;12.50;99.90
17956;DHT22;27666;51.498;11.966;2023-05-07T11:40:49;12.70;99.90
17956;DHT22;27666;51.498;11.966;2023-05-07T11:43:36;12.50;99.90
17956;DHT22;27666;51.498;11.966;2023-05-07T11:46:27;12.30;99.90
17956;DHT22;27666;51.498;11.966;2023-05-07T11:49:14;12.50;99.90
17956;DHT22;27666;51.498;11.966;2023-05-07T11:52:01;12.70;99.90
17956;DHT22;27666;51.498;11.966;2023-05-07T11:54:50;12.80;99.90
17956;DHT22;27666;51.498;11.966;2023-05-07T11:57:37;12.70;99.90
17956;DHT22;27666;51.498;11.966;2023-05-07T12:00:23;12.70;99.90
17956;DHT22;27666;51.498;11.966;2023-05-07T12:03:11;12.60;99.90
17956;DHT22;27666;51.498;11.966;2023-05-07T12:05:59;12.30;99.90
17956;DHT22;27666;51.498;11.966;2023-05-07T12:08:46;12.30;99.90
17956;DHT22;27666;51.498;11.966;2023-05-07T12:11:33;12.70;99.90
17956;DHT22;27666;51.498;11.966;2023-05-07T12:14:20;12.80;99.90
17956;DHT22;27666;51.498;11.966;2023-05-07T12:17:07;12.60;99.90
17956;DHT22;27666;51.498;11.966;2023-05-07T12:19:55;12.70;99.90
17956;DHT22;27666;51.498;11.966;2023-05-07T12:22:42;13.00;99.90
17956;DHT22;27666;51.498;11.966;2023-05-07T12:25:30;13.20;99.90
17956;DHT22;27666;51.498;11.966;2023-05-07T12:28:18;13.40;99.90
17956;DHT22;27666;51.498;11.966;2023-05-07T12:31:06;13.50;99.90
17956;DHT22;27666;51.498;11.966;2023-05-07T12:33:52;13.70;99.90
17956;DHT22;27666;51.498;11.966;2023-05-07T12:36:40;13.50;99.90
17956;DHT22;27666;51.498;11.966;2023-05-07T12:39:27;13.30;99.90
17956;DHT22;27666;51.498;11.966;2023-05-07T12:42:15;13.20;99.90
17956;DHT22;27666;51.498;11.966;2023-05-07T12:45:08;12.90;99.90
17956;DHT22;27666;51.498;11.966;2023-05-07T12:47:56;12.70;99.90
17956;DHT22;27666;51.498;11.966;2023-05-07T12:50:49;12.80;99.90
17956;DHT22;27666;51.498;11.966;2023-05-07T12:53:40;12.90;99.90
17956;DHT22;27666;51.498;11.966;2023-05-07T12:56:30;12.90;99.90
17956;DHT22;27666;51.498;11.966;2023-05-07T12:59:17;12.90;99.90
17956;DHT22;27666;51.498;11.966;2023-05-07T13:02:04;13.10;99.90
17956;DHT22;27666;51.498;11.966;2023-05-07T13:04:50;13.00;99.90
17956;DHT22;27666;51.498;11.966;2023-05-07T13:07:39;12.90;99.90
17956;DHT22;27666;51.498;11.966;2023-05-07T13:10:27;12.70;99.90
17956;DHT22;27666;51.498;11.966;2023-05-07T13:13:14;12.80;99.90
17956;DHT22;27666;51.498;11.966;2023-05-07T13:16:00;12.70;99.90
17956;DHT22;27666;51.498;11.966;2023-05-07T13:18:47;13.00;99.90
17956;DHT22;27666;51.498;11.966;2023-05-07T13:21:34;13.40;99.90
17956;DHT22;27666;51.498;11.966;2023-05-07T13:24:20;13.30;99.90
17956;DHT22;27666;51.498;11.966;2023-05-07T13:27:08;13.40;99.90
17956;DHT22;27666;51.498;11.966;2023-05-07T13:29:55;13.30;99.90
17956;DHT22;27666;51.498;11.966;2023-05-07T13:32:42;13.30;99.90
17956;DHT22;27666;51.498;11.966;2023-05-07T13:35:29;13.20;99.90
17956;DHT22;27666;51.498;11.966;2023-05-07T13:38:16;13.40;99.90
17956;DHT22;27666;51.498;11.966;2023-05-07T13:41:03;13.40;99.90
17956;DHT22;27666;51.498;11.966;2023-05-07T13:43:50;13.80;99.90
17956;DHT22;27666;51.498;11.966;2023-05-07T13:46:37;13.80;99.90
17956;DHT22;27666;51.498;11.966;2023-05-07T13:49:24;13.70;99.90
17956;DHT22;27666;51.498;11.966;2023-05-07T13:52:11;13.80;99.90
17956;DHT22;27666;51.498;11.966;2023-05-07T13:54:57;13.60;99.90
17956;DHT22;27666;51.498;11.966;2023-05-07T13:57:44;13.70;99.90
17956;DHT22;27666;51.498;11.966;2023-05-07T14:00:32;13.50;99.90
17956;DHT22;27666;51.498;11.966;2023-05-07T14:03:18;13.70;99.90
17956;DHT22;27666;51.498;11.966;2023-05-07T14:06:05;13.80;99.90
17956;DHT22;27666;51.498;11.966;2023-05-07T14:08:51;13.80;99.90
17956;DHT22;27666;51.498;11.966;2023-05-07T14:11:38;13.80;99.90
17956;DHT22;27666;51.498;11.966;2023-05-07T14:14:24;13.90;99.90
17956;DHT22;27666;51.498;11.966;2023-05-07T14:17:12;14.00;99.90
17956;DHT22;27666;51.498;11.966;2023-05-07T14:20:01;14.00;99.90
17956;DHT22;27666;51.498;11.966;2023-05-07T14:22:47;14.00;99.90
17956;DHT22;27666;51.498;11.966;2023-05-07T14:25:34;13.80;99.90
17956;DHT22;27666;51.498;11.966;2023-05-07T14:28:20;13.70;99.90
17956;DHT22;27666;51.498;11.966;2023-05-07T14:31:07;13.60;99.90
17956;DHT22;27666;51.498;11.966;2023-05-07T14:33:56;13.50;99.90
17956;DHT22;27666;51.498;11.966;2023-05-07T14:36:44;13.50;99.90
17956;DHT22;27666;51.498;11.966;2023-05-07T14:39:33;13.50;99.90
17956;DHT22;27666;51.498;11.966;2023-05-07T14:42:19;13.60;99.90
17956;DHT22;27666;51.498;11.966;2023-05-07T14:45:06;13.80;99.90
17956;DHT22;27666;51.498;11.966;2023-05-07T14:47:53;13.90;99.90
17956;DHT22;27666;51.498;11.966;2023-05-07T14:50:42;13.80;99.90
17956;DHT22;27666;51.498;11.966;2023-05-07T14:53:28;14.00;99.90
17956;DHT22;27666;51.498;11.966;2023-05-07T14:56:15;14.00;99.90
17956;DHT22;27666;51.498;11.966;2023-05-07T14:59:02;13.80;99.90
17956;DHT22;27666;51.498;11.966;2023-05-07T15:01:49;13.70;99.90
17956;DHT22;27666;51.498;11.966;2023-05-07T15:04:35;13.70;99.90
17956;DHT22;27666;51.498;11.966;2023-05-07T15:07:24;13.50;99.90
17956;DHT22;27666;51.498;11.966;2023-05-07T15:10:11;13.60;99.90
17956;DHT22;27666;51.498;11.966;2023-05-07T15:12:57;13.70;99.90
17956;DHT22;27666;51.498;11.966;2023-05-07T15:15:44;13.70;99.90
17956;DHT22;27666;51.498;11.966;2023-05-07T15:18:31;13.60;99.90
17956;DHT22;27666;51.498;11.966;2023-05-07T15:21:17;13.60;99.90
17956;DHT22;27666;51.498;11.966;2023-05-07T15:24:06;13.60;99.90
17956;DHT22;27666;51.498;11.966;2023-05-07T15:26:54;13.60;99.90
17956;DHT22;27666;51.498;11.966;2023-05-07T15:29:41;13.60;99.90
17956;DHT22;27666;51.498;11.966;2023-05-07T15:32:28;13.50;99.90
17956;DHT22;27666;51.498;11.966;2023-05-07T15:35:15;13.50;99.90
17956;DHT22;27666;51.498;11.966;2023-05-07T15:38:02;13.60;99.90
17956;DHT22;27666;51.498;11.966;2023-05-07T15:40:50;13.50;99.90
17956;DHT22;27666;51.498;11.966;2023-05-07T15:43:43;13.60;99.90
17956;DHT22;27666;51.498;11.966;2023-05-07T15:46:30;13.50;99.90
17956;DHT22;27666;51.498;11.966;2023-05-07T15:49:17;13.60;99.90
17956;DHT22;27666;51.498;11.966;2023-05-07T15:52:04;13.60;99.90
17956;DHT22;27666;51.498;11.966;2023-05-07T15:54:55;13.50;99.90
17956;DHT22;27666;51.498;11.966;2023-05-07T15:57:43;13.60;99.90
17956;DHT22;27666;51.498;11.966;2023-05-07T16:00:30;13.50;99.90
17956;DHT22;27666;51.498;11.966;2023-05-07T16:03:16;13.40;99.90
17956;DHT22;27666;51.498;11.966;2023-05-07T16:06:03;13.50;99.90
17956;DHT22;27666;51.498;11.966;2023-05-07T16:08:50;13.60;99.90
17956;DHT22;27666;51.498;11.966;2023-05-07T16:11:37;13.60;99.90
17956;DHT22;27666;51.498;11.966;2023-05-07T16:14:25;13.60;99.90
17956;DHT22;27666;51.498;11.966;2023-05-07T16:17:11;13.50;99.90
17956;DHT22;27666;51.498;11.966;2023-05-07T16:19:57;13.40;99.90
17956;DHT22;27666;51.498;11.966;2023-05-07T16:22:48;13.30;99.90
17956;DHT22;27666;51.498;11.966;2023-05-07T16:25:35;13.30;99.90
17956;DHT22;27666;51.498;11.966;2023-05-07T16:28:22;13.20;99.90
17956;DHT22;27666;51.498;11.966;2023-05-07T16:31:11;13.20;99.90
17956;DHT22;27666;51.498;11.966;2023-05-07T16:33:58;13.20;99.90
17956;DHT22;27666;51.498;11.966;2023-05-07T16:36:45;13.20;99.90
17956;DHT22;27666;51.498;11.966;2023-05-07T16:39:32;13.20;99.90
17956;DHT22;27666;51.498;11.966;2023-05-07T16:42:18;13.20;99.90
17956;DHT22;27666;51.498;11.966;2023-05-07T16:45:05;13.20;99.90
17956;DHT22;27666;51.498;11.966;2023-05-07T16:47:54;13.10;99.90
17956;DHT22;27666;51.498;11.966;2023-05-07T16:50:42;13.10;99.90
17956;DHT22;27666;51.498;11.966;2023-05-07T16:53:29;13.00;99.90
17956;DHT22;27666;51.498;11.966;2023-05-07T16:56:15;12.90;99.90
17956;DHT22;27666;51.498;11.966;2023-05-07T16:59:02;12.90;99.90
17956;DHT22;27666;51.498;11.966;2023-05-07T17:01:48;12.90;99.90
17956;DHT22;27666;51.498;11.966;2023-05-07T17:04:38;12.90;99.90
17956;DHT22;27666;51.498;11.966;2023-05-07T17:07:24;12.80;99.90
17956;DHT22;27666;51.498;11.966;2023-05-07T17:10:11;12.90;99.90
17956;DHT22;27666;51.498;11.966;2023-05-07T17:12:58;12.80;99.90
17956;DHT22;27666;51.498;11.966;2023-05-07T17:15:44;12.70;99.90
17956;DHT22;27666;51.498;11.966;2023-05-07T17:18:32;12.50;99.90
17956;DHT22;27666;51.498;11.966;2023-05-07T17:21:20;12.50;99.90
17956;DHT22;27666;51.498;11.966;2023-05-07T17:24:07;12.50;99.90